Terminal Aerodrome Forecast
Issued by NWS Mobile, AL

Home | Current Version | Previous Version | Text Only | Print | Product List | Glossary On
Versions: 1 2 3 4 5 6 7 8 9 10 11 12 13 14 15 16 17 18 19 20 21 22 23 24 25 26 27 28 29 30 31 32 33
000
FTUS44 KMOB 290614 AAA
TAFPNS
TAF AMD
KPNS 290614Z 2906/3006 09004KT P6SM SCT003 SCT015 SCT200
      TEMPO 2906/2909 BKN003
     FM291800 15010KT P6SM SCT040
      TEMPO 2919/2922 VRB15G25KT 3SM TSRA SCT025CB BKN040=

USA.gov is the U.S. government's official web portal to all federal, state and local government web resources and services.